createdAt,value
2022-08-14T00:00:07.187Z,98851.03
2022-08-14T00:02:40.520Z,98850.22
2022-08-14T00:05:12.455Z,98844.56
2022-08-14T00:07:42.264Z,98841.91
2022-08-14T00:10:52.317Z,98848.22
2022-08-14T00:13:07.097Z,98841.41
2022-08-14T00:15:44.164Z,98840.59
2022-08-14T00:18:30.622Z,98833.31
2022-08-14T00:21:11.467Z,98833.38
2022-08-14T00:23:41.725Z,98836.91
2022-08-14T00:26:21.610Z,98835.00
2022-08-14T00:28:55.035Z,98838.59
2022-08-14T00:31:44.148Z,98835.13
2022-08-14T00:34:36.372Z,98828.09
2022-08-14T00:37:02.546Z,98825.44
2022-08-14T00:39:31.918Z,98825.50
2022-08-14T00:42:01.040Z,98828.50
2022-08-14T00:44:33.323Z,98818.22
2022-08-14T00:47:03.820Z,98825.03
2022-08-14T00:49:42.724Z,98822.84
2022-08-14T00:52:17.757Z,98824.94
2022-08-14T00:54:52.999Z,98822.47
2022-08-14T00:57:31.414Z,98820.72
2022-08-14T01:00:03.882Z,98822.38
2022-08-14T01:02:33.074Z,98816.16
2022-08-14T01:05:02.874Z,98825.66
2022-08-14T01:07:38.833Z,98821.31
2022-08-14T01:10:20.897Z,98824.31
2022-08-14T01:12:51.955Z,98822.47
2022-08-14T01:15:48.176Z,98813.03
2022-08-14T01:18:31.400Z,98821.44
2022-08-14T01:21:09.324Z,98821.63
2022-08-14T01:23:46.814Z,98814.88
2022-08-14T01:26:34.879Z,98815.22
2022-08-14T01:29:16.078Z,98815.44
2022-08-14T01:31:46.373Z,98811.16
2022-08-14T01:35:20.334Z,98811.75
2022-08-14T01:37:10.867Z,98816.13
2022-08-14T01:39:42.313Z,98809.94
2022-08-14T01:42:11.782Z,98813.50
2022-08-14T01:45:00.620Z,98811.34
2022-08-14T01:47:33.545Z,98817.03
2022-08-14T01:50:08.055Z,98814.09
2022-08-14T01:52:58.473Z,98812.72
2022-08-14T01:55:32.008Z,98819.22
2022-08-14T01:58:19.870Z,98818.94
2022-08-14T02:00:55.183Z,98812.50
2022-08-14T02:03:30.154Z,98812.53
2022-08-14T02:06:04.117Z,98812.28
2022-08-14T02:08:53.453Z,98817.91
2022-08-14T02:11:26.918Z,98809.56
2022-08-14T02:14:07.555Z,98806.34
2022-08-14T02:16:40.450Z,98805.03
2022-08-14T02:19:14.265Z,98795.56
2022-08-14T02:21:47.152Z,98803.41
2022-08-14T02:24:40.037Z,98793.06
2022-08-14T02:28:22.779Z,98788.97
2022-08-14T02:30:02.370Z,98795.00
2022-08-14T02:32:37.111Z,98789.84
2022-08-14T02:35:13.915Z,98786.38
2022-08-14T02:37:48.265Z,98775.03
2022-08-14T02:40:18.814Z,98776.94
2022-08-14T02:42:55.219Z,98781.72
2022-08-14T02:45:38.347Z,98785.25
2022-08-14T02:49:04.523Z,98783.41
2022-08-14T02:51:09.075Z,98779.59
2022-08-14T02:53:42.361Z,98773.38
2022-08-14T02:56:29.949Z,98774.75
2022-08-14T02:59:08.439Z,98770.97
2022-08-14T03:04:40.149Z,98775.25
2022-08-14T03:07:09.739Z,98775.50
2022-08-14T03:09:42.430Z,98769.59
2022-08-14T03:12:32.453Z,98765.78
2022-08-14T03:15:16.045Z,98770.38
2022-08-14T03:17:56.845Z,98778.00
2022-08-14T03:20:29.043Z,98775.81
2022-08-14T03:23:04.400Z,98780.41
2022-08-14T03:25:37.782Z,98776.38
2022-08-14T03:28:14.317Z,98769.59
2022-08-14T03:31:00.328Z,98769.25
2022-08-14T03:33:37.632Z,98770.56
2022-08-14T03:37:37.938Z,98764.09
2022-08-14T03:39:15.530Z,98769.25
2022-08-14T03:41:51.047Z,98767.94
2022-08-14T03:45:27.169Z,98762.78
2022-08-14T03:47:11.884Z,98764.41
2022-08-14T03:49:43.349Z,98759.00
2022-08-14T03:52:27.977Z,98756.88
2022-08-14T03:55:06.686Z,98761.78
2022-08-14T03:57:37.315Z,98755.88
2022-08-14T04:00:40.326Z,98759.63
2022-08-14T04:03:05.119Z,98755.91
2022-08-14T04:05:42.810Z,98757.53
2022-08-14T04:08:29.370Z,98757.00
2022-08-14T04:11:01.845Z,98762.34
2022-08-14T04:13:34.351Z,98759.72
2022-08-14T04:16:05.237Z,98762.41
2022-08-14T04:18:43.637Z,98759.41
2022-08-14T04:21:13.355Z,98763.44
2022-08-14T04:23:44.304Z,98761.28
2022-08-14T04:26:27.488Z,98754.78
2022-08-14T04:29:14.201Z,98757.00
2022-08-14T04:33:01.777Z,98761.88
2022-08-14T04:34:42.017Z,98754.56
2022-08-14T04:37:28.537Z,98754.84
2022-08-14T04:40:15.923Z,98765.63
2022-08-14T04:43:02.434Z,98769.44
2022-08-14T04:45:41.042Z,98759.63
2022-08-14T04:48:38.812Z,98751.31
2022-08-14T04:51:07.169Z,98749.91
2022-08-14T04:53:41.008Z,98751.53
2022-08-14T04:56:33.869Z,98757.47
2022-08-14T04:59:10.184Z,98750.16
2022-08-14T05:01:48.962Z,98751.72
2022-08-14T05:04:21.843Z,98742.50
2022-08-14T05:06:55.604Z,98745.16
2022-08-14T05:09:29.214Z,98748.63
2022-08-14T05:12:00.649Z,98744.25
2022-08-14T05:14:53.700Z,98734.47
2022-08-14T05:17:31.998Z,98732.53
2022-08-14T05:21:54.943Z,98728.97
2022-08-14T05:23:03.739Z,98731.63
2022-08-14T05:25:33.584Z,98724.25
2022-08-14T05:28:16.271Z,98722.25
2022-08-14T05:30:46.711Z,98721.66
2022-08-14T05:33:18.607Z,98717.25
2022-08-14T05:35:48.561Z,98717.19
2022-08-14T05:38:22.328Z,98719.81
2022-08-14T05:41:06.370Z,98714.84
2022-08-14T05:43:41.495Z,98710.16
2022-08-14T05:46:15.191Z,98708.78
2022-08-14T05:48:45.254Z,98708.72
2022-08-14T05:51:14.664Z,98705.13
2022-08-14T05:54:01.476Z,98709.16
2022-08-14T05:56:36.928Z,98709.09
2022-08-14T05:59:07.199Z,98711.72
2022-08-14T06:01:36.479Z,98715.47
2022-08-14T06:04:06.042Z,98708.63
2022-08-14T06:06:38.326Z,98702.94
2022-08-14T06:09:10.630Z,98699.66
2022-08-14T06:11:39.817Z,98697.47
2022-08-14T06:14:20.637Z,98702.28
2022-08-14T06:16:50.220Z,98696.28
2022-08-14T06:19:23.257Z,98703.53
2022-08-14T06:21:58.300Z,98693.41
2022-08-14T06:24:30.436Z,98693.81
2022-08-14T06:27:06.250Z,98691.56
2022-08-14T06:29:40.713Z,98675.69
2022-08-14T06:32:38.501Z,98682.34
2022-08-14T06:35:11.765Z,98683.56
2022-08-14T06:37:48.928Z,98685.00
2022-08-14T06:40:27.941Z,98683.22
2022-08-14T06:43:00.501Z,98669.41
2022-08-14T06:45:32.795Z,98668.94
2022-08-14T06:48:03.657Z,98664.63
2022-08-14T06:50:35.139Z,98667.63
2022-08-14T06:53:03.835Z,98658.16
2022-08-14T06:55:36.975Z,98656.84
2022-08-14T06:58:28.390Z,98649.75
2022-08-14T07:01:16.111Z,98643.19
2022-08-14T07:04:03.070Z,98645.88
2022-08-14T07:06:46.455Z,98649.66
2022-08-14T07:09:22.492Z,98643.34
2022-08-14T07:11:53.680Z,98640.69
2022-08-14T07:14:22.580Z,98646.66
2022-08-14T07:16:51.384Z,98633.91
2022-08-14T07:19:20.767Z,98638.59
2022-08-14T07:21:50.449Z,98638.81
2022-08-14T07:24:21.751Z,98634.41
2022-08-14T07:26:56.676Z,98633.22
2022-08-14T07:29:26.497Z,98634.34
2022-08-14T07:31:57.905Z,98628.28
2022-08-14T07:34:40.988Z,98624.63
2022-08-14T07:37:10.760Z,98620.47
2022-08-14T07:39:39.564Z,98622.94
2022-08-14T07:42:14.264Z,98624.72
2022-08-14T07:44:50.587Z,98617.97
2022-08-14T07:47:19.816Z,98610.44
2022-08-14T07:50:02.248Z,98612.66
2022-08-14T07:52:31.988Z,98606.72
2022-08-14T07:55:05.226Z,98611.22
2022-08-14T07:57:35.942Z,98596.75
2022-08-14T08:00:31.275Z,98595.94
2022-08-14T08:03:00.712Z,98598.16
2022-08-14T08:05:29.641Z,98593.16
2022-08-14T08:07:59.238Z,98600.53
2022-08-14T08:11:01.390Z,98600.06
2022-08-14T08:13:29.202Z,98609.97
2022-08-14T08:15:59.387Z,98603.13
2022-08-14T08:18:29.488Z,98599.88
2022-08-14T08:21:00.151Z,98604.22
2022-08-14T08:23:40.756Z,98594.69
2022-08-14T08:26:12.562Z,98603.25
2022-08-14T08:28:44.608Z,98603.19
2022-08-14T08:31:13.897Z,98596.19
2022-08-14T08:33:44.910Z,98602.41
2022-08-14T08:36:19.136Z,98603.59
2022-08-14T08:39:16.409Z,98600.41
2022-08-14T08:41:49.451Z,98601.34
2022-08-14T08:44:33.375Z,98593.88
2022-08-14T08:47:06.731Z,98593.22
2022-08-14T08:49:48.831Z,98595.72
2022-08-14T08:52:31.357Z,98587.75
2022-08-14T08:55:04.681Z,98592.38
2022-08-14T08:57:37.612Z,98584.44
2022-08-14T09:00:25.196Z,98575.69
2022-08-14T09:03:02.145Z,98572.09
2022-08-14T09:05:33.545Z,98570.97
2022-08-14T09:08:30.338Z,98570.75
2022-08-14T09:11:19.073Z,98570.19
2022-08-14T09:13:52.875Z,98570.53
2022-08-14T09:16:25.795Z,98572.69
2022-08-14T09:18:56.004Z,98567.34
2022-08-14T09:21:31.683Z,98568.16
2022-08-14T09:24:28.157Z,98564.34
2022-08-14T09:26:50.879Z,98556.09
2022-08-14T09:29:23.054Z,98558.50
2022-08-14T09:31:59.431Z,98550.59
2022-08-14T09:34:59.550Z,98555.47
2022-08-14T09:37:42.050Z,98541.84
2022-08-14T09:40:29.425Z,98545.00
2022-08-14T09:43:13.235Z,98539.16
2022-08-14T09:45:53.137Z,98532.63
2022-08-14T09:48:30.277Z,98531.28
2022-08-14T09:54:18.978Z,98512.53
2022-08-14T09:56:45.803Z,98513.59
2022-08-14T09:59:22.241Z,98516.75
2022-08-14T10:01:52.744Z,98509.03
2022-08-14T10:04:34.308Z,98504.50
2022-08-14T10:07:08.503Z,98508.84
2022-08-14T10:09:57.561Z,98492.44
2022-08-14T10:12:28.960Z,98495.53
2022-08-14T10:14:58.290Z,98496.69
2022-08-14T10:17:38.377Z,98499.78
2022-08-14T10:20:40.758Z,98488.78
2022-08-14T10:23:17.914Z,98479.94
2022-08-14T10:25:50.754Z,98475.34
2022-08-14T10:28:57.459Z,98474.59
2022-08-14T10:31:26.917Z,98465.41
2022-08-14T10:34:12.899Z,98464.53
2022-08-14T10:36:49.958Z,98465.47
2022-08-14T10:39:22.563Z,98458.25
2022-08-14T10:42:16.329Z,98454.69
2022-08-14T10:44:52.625Z,98452.44
2022-08-14T10:47:39.397Z,98444.41
2022-08-14T10:50:12.138Z,98445.25
2022-08-14T10:52:46.698Z,98437.16
2022-08-14T10:55:20.894Z,98431.31
2022-08-14T10:57:52.859Z,98429.78
2022-08-14T11:00:29.906Z,98422.44
2022-08-14T11:03:10.922Z,98433.31
2022-08-14T11:05:46.330Z,98423.78
2022-08-14T11:08:20.279Z,98420.47
2022-08-14T11:10:55.933Z,98411.13
2022-08-14T11:13:29.951Z,98411.31
2022-08-14T11:16:02.434Z,98407.91
2022-08-14T11:18:40.030Z,98415.19
2022-08-14T11:21:10.877Z,98408.50
2022-08-14T11:23:44.142Z,98403.09
2022-08-14T11:26:16.669Z,98411.47
2022-08-14T11:28:49.885Z,98418.31
2022-08-14T11:31:23.638Z,98402.84
2022-08-14T11:33:58.511Z,98396.59
2022-08-14T11:37:02.894Z,98386.66
2022-08-14T11:39:34.277Z,98392.84
2022-08-14T11:42:56.824Z,98387.13
2022-08-14T11:45:00.952Z,98375.78
2022-08-14T11:47:35.437Z,98389.66
2022-08-14T11:50:33.994Z,98365.91
2022-08-14T11:53:07.673Z,98373.75
2022-08-14T11:55:40.305Z,98374.34
2022-08-14T11:58:12.086Z,98372.53
2022-08-14T12:01:00.006Z,98376.25
2022-08-14T12:03:46.739Z,98385.13
2022-08-14T12:06:29.230Z,98375.28
2022-08-14T12:09:15.046Z,98369.69
2022-08-14T12:11:47.569Z,98363.00
2022-08-14T12:14:34.886Z,98371.13
2022-08-14T12:17:12.711Z,98376.81
2022-08-14T12:19:54.077Z,98379.09
2022-08-14T12:22:37.283Z,98369.06
2022-08-14T12:25:11.239Z,98365.09
2022-08-14T12:27:53.588Z,98362.34
2022-08-14T12:30:39.756Z,98362.00
2022-08-14T12:33:31.246Z,98353.00
2022-08-14T12:36:06.319Z,98362.09
2022-08-14T12:38:38.510Z,98360.44
2022-08-14T12:41:20.829Z,98361.09
2022-08-14T12:43:56.858Z,98367.81
2022-08-14T12:46:31.772Z,98360.53
2022-08-14T12:49:06.411Z,98358.03
2022-08-14T12:51:35.704Z,98355.50
2022-08-14T12:54:27.669Z,98353.81
2022-08-14T12:57:07.869Z,98353.03
2022-08-14T12:59:42.776Z,98349.38
2022-08-14T13:02:25.982Z,98349.69
2022-08-14T13:04:58.015Z,98340.31
2022-08-14T13:07:32.657Z,98333.22
2022-08-14T13:10:47.756Z,98333.34
2022-08-14T13:13:13.188Z,98326.81
2022-08-14T13:15:46.697Z,98325.78
2022-08-14T13:18:18.094Z,98316.91
2022-08-14T13:20:55.471Z,98315.41
2022-08-14T13:23:31.623Z,98312.22
2022-08-14T13:26:01.443Z,98320.19
2022-08-14T13:28:34.560Z,98315.38
2022-08-14T13:31:17.963Z,98317.84
2022-08-14T13:33:53.220Z,98308.63
2022-08-14T13:36:24.468Z,98303.84
2022-08-14T13:39:12.829Z,98296.66
2022-08-14T13:41:41.934Z,98284.47
2022-08-14T13:44:14.655Z,98279.16
2022-08-14T13:46:52.765Z,98280.97
2022-08-14T13:49:24.030Z,98269.75
2022-08-14T13:51:59.236Z,98275.44
2022-08-14T13:54:34.414Z,98270.28
2022-08-14T13:57:04.754Z,98265.97
2022-08-14T13:59:37.464Z,98254.13
2022-08-14T14:02:09.905Z,98246.19
2022-08-14T14:04:46.366Z,98252.53
2022-08-14T14:07:23.607Z,98247.25
2022-08-14T14:09:56.896Z,98236.47
2022-08-14T14:12:37.241Z,98236.44
2022-08-14T14:15:13.565Z,98233.16
2022-08-14T14:17:46.733Z,98222.63
2022-08-14T14:20:34.459Z,98227.13
2022-08-14T14:23:11.855Z,98222.66
2022-08-14T14:25:51.333Z,98213.53
2022-08-14T14:28:32.589Z,98209.44
2022-08-14T14:31:07.030Z,98206.72
2022-08-14T14:33:46.888Z,98202.78
2022-08-14T14:36:21.858Z,98207.94
2022-08-14T14:38:56.131Z,98204.47
2022-08-14T14:41:37.351Z,98215.41
2022-08-14T14:44:13.557Z,98199.69
2022-08-14T14:46:49.817Z,98206.44
2022-08-14T14:49:25.955Z,98199.75
2022-08-14T14:52:23.251Z,98196.50
2022-08-14T14:54:58.780Z,98195.72
2022-08-14T14:57:35.006Z,98194.91
2022-08-14T15:00:12.673Z,98194.91
2022-08-14T15:02:45.032Z,98194.06
2022-08-14T15:05:19.077Z,98206.25
2022-08-14T15:07:51.272Z,98204.56
2022-08-14T15:10:27.577Z,98208.56
2022-08-14T15:13:04.150Z,98203.50
2022-08-14T15:15:37.309Z,98195.69
2022-08-14T15:18:36.097Z,98201.19
2022-08-14T15:21:01.316Z,98198.72
2022-08-14T15:23:43.727Z,98200.84
2022-08-14T15:26:31.359Z,98202.63
2022-08-14T15:29:05.674Z,98203.41
2022-08-14T15:31:37.217Z,98195.78
2022-08-14T15:34:43.763Z,98194.91
2022-08-14T15:37:12.699Z,98189.72
2022-08-14T15:39:42.557Z,98185.34
2022-08-14T15:42:16.139Z,98188.78
2022-08-14T15:44:57.793Z,98184.75
2022-08-14T15:47:32.412Z,98178.38
2022-08-14T15:50:05.192Z,98180.97
2022-08-14T15:52:38.600Z,98180.50
2022-08-14T15:55:13.138Z,98189.84
2022-08-14T15:57:51.328Z,98183.91
2022-08-14T16:00:50.171Z,98185.38
2022-08-14T16:03:28.006Z,98177.72
2022-08-14T16:06:05.953Z,98177.31
2022-08-14T16:08:41.874Z,98178.44
2022-08-14T16:11:12.497Z,98178.78
2022-08-14T16:13:44.387Z,98173.59
2022-08-14T16:16:34.345Z,98168.56
2022-08-14T16:19:11.343Z,98170.06
2022-08-14T16:22:01.404Z,98170.81
2022-08-14T16:24:35.911Z,98166.03
2022-08-14T16:27:34.133Z,98172.28
2022-08-14T16:30:10.839Z,98165.47
2022-08-14T16:32:55.221Z,98157.59
2022-08-14T16:35:42.431Z,98159.09
2022-08-14T16:38:19.761Z,98157.09
2022-08-14T16:41:22.274Z,98149.13
2022-08-14T16:43:59.112Z,98142.69
2022-08-14T16:46:32.686Z,98149.69
2022-08-14T16:49:02.734Z,98134.53
2022-08-14T16:51:36.525Z,98136.06
2022-08-14T16:54:34.340Z,98136.78
2022-08-14T16:57:18.488Z,98133.38
2022-08-14T16:59:52.836Z,98136.63
2022-08-14T17:02:39.730Z,98127.69
2022-08-14T17:05:21.934Z,98129.28
2022-08-14T17:08:33.474Z,98130.09
2022-08-14T17:11:04.779Z,98125.13
2022-08-14T17:14:00.528Z,98122.84
2022-08-14T17:16:37.867Z,98125.78
2022-08-14T17:19:13.822Z,98128.84
2022-08-14T17:21:46.800Z,98121.97
2022-08-14T17:27:10.397Z,98122.13
2022-08-14T17:29:54.797Z,98116.66
2022-08-14T17:32:55.561Z,98119.75
2022-08-14T17:35:57.439Z,98110.72
2022-08-14T17:38:38.239Z,98106.66
2022-08-14T17:41:27.342Z,98108.69
2022-08-14T17:44:21.501Z,98110.28
2022-08-14T17:46:57.317Z,98111.25
2022-08-14T17:49:31.990Z,98112.66
2022-08-14T17:52:07.363Z,98107.53
2022-08-14T17:54:44.463Z,98107.81
2022-08-14T17:57:16.292Z,98109.59
2022-08-14T17:59:49.154Z,98111.56
2022-08-14T18:02:31.001Z,98111.56
2022-08-14T18:05:03.061Z,98111.44
2022-08-14T18:08:00.428Z,98107.63
2022-08-14T18:10:53.206Z,98114.06
2022-08-14T18:13:14.174Z,98112.19
2022-08-14T18:15:44.441Z,98106.25
2022-08-14T18:18:22.673Z,98112.88
2022-08-14T18:21:39.753Z,98099.25
2022-08-14T18:23:43.947Z,98107.59
2022-08-14T18:26:36.988Z,98105.88
2022-08-14T18:29:07.621Z,98102.34
2022-08-14T18:31:45.435Z,98109.44
2022-08-14T18:34:31.345Z,98107.75
2022-08-14T18:37:17.673Z,98123.44
2022-08-14T18:40:01.295Z,98122.31
2022-08-14T18:42:48.331Z,98127.59
2022-08-14T18:45:28.694Z,98128.72
2022-08-14T18:48:28.710Z,98127.81
2022-08-14T18:51:06.687Z,98137.88
2022-08-14T18:53:56.990Z,98137.31
2022-08-14T18:56:58.835Z,98135.81
2022-08-14T18:59:40.286Z,98135.72
2022-08-14T19:02:45.844Z,98131.28
2022-08-14T19:05:14.725Z,98137.63
2022-08-14T19:07:48.381Z,98130.53
2022-08-14T19:10:37.226Z,98134.84
2022-08-14T19:13:12.154Z,98140.28
2022-08-14T19:15:45.540Z,98145.31
2022-08-14T19:18:29.625Z,98142.78
2022-08-14T19:21:13.190Z,98138.00
2022-08-14T19:23:59.464Z,98146.41
2022-08-14T19:26:37.180Z,98139.47
2022-08-14T19:29:38.136Z,98137.97
2022-08-14T19:32:40.869Z,98136.47
2022-08-14T19:35:55.929Z,98137.69
2022-08-14T19:38:57.235Z,98134.72
2022-08-14T19:41:34.053Z,98136.09
2022-08-14T19:44:13.526Z,98130.22
2022-08-14T19:47:01.466Z,98129.84
2022-08-14T19:50:09.007Z,98128.44
2022-08-14T19:52:30.286Z,98135.03
2022-08-14T19:55:20.472Z,98141.59
2022-08-14T19:58:03.702Z,98141.78
2022-08-14T20:00:33.115Z,98147.03
2022-08-14T20:03:10.872Z,98137.81
2022-08-14T20:05:46.366Z,98146.75
2022-08-14T20:11:02.420Z,98140.56
2022-08-14T20:12:02.255Z,98140.91
2022-08-14T20:14:20.629Z,98136.72
2022-08-14T20:16:55.873Z,98138.72
2022-08-14T20:19:29.134Z,98151.25
2022-08-14T20:22:35.829Z,98145.69
2022-08-14T20:24:54.126Z,98146.81
2022-08-14T20:27:39.595Z,98144.44
2022-08-14T20:30:35.255Z,98136.59
2022-08-14T20:33:07.867Z,98147.06
2022-08-14T20:35:46.898Z,98146.13
2022-08-14T20:38:31.980Z,98146.78
2022-08-14T20:41:09.749Z,98146.63
2022-08-14T20:44:02.894Z,98144.41
2022-08-14T20:46:39.561Z,98135.56
2022-08-14T20:49:16.213Z,98140.09
2022-08-14T20:51:59.068Z,98136.75
2022-08-14T20:54:34.007Z,98138.06
2022-08-14T20:57:09.837Z,98132.63
2022-08-14T20:59:44.418Z,98136.31
2022-08-14T21:02:34.424Z,98130.69
2022-08-14T21:05:16.462Z,98128.94
2022-08-14T21:07:50.226Z,98129.78
2022-08-14T21:10:34.216Z,98131.56
2022-08-14T21:13:29.092Z,98128.81
2022-08-14T21:15:58.618Z,98126.78
2022-08-14T21:18:32.633Z,98130.00
2022-08-14T21:21:07.600Z,98124.19
2022-08-14T21:23:54.738Z,98124.06
2022-08-14T21:26:50.882Z,98116.38
2022-08-14T21:29:18.655Z,98110.13
2022-08-14T21:31:55.897Z,98107.72
2022-08-14T21:34:32.302Z,98102.13
2022-08-14T21:37:09.960Z,98108.88
2022-08-14T21:39:39.679Z,98109.66
2022-08-14T21:42:10.908Z,98107.59
2022-08-14T21:44:43.780Z,98114.03
2022-08-14T21:47:16.060Z,98107.94
2022-08-14T21:49:48.171Z,98106.97
2022-08-14T21:52:51.180Z,98105.03
2022-08-14T21:55:23.346Z,98107.59
2022-08-14T21:58:45.788Z,98105.22
2022-08-14T22:00:42.902Z,98104.72
2022-08-14T22:03:17.394Z,98094.00
2022-08-14T22:05:53.255Z,98098.03
2022-08-14T22:08:27.061Z,98092.06
2022-08-14T22:10:57.593Z,98094.63
2022-08-14T22:13:32.396Z,98088.75
2022-08-14T22:16:02.610Z,98079.31
2022-08-14T22:18:32.323Z,98083.16
2022-08-14T22:21:08.080Z,98085.72
2022-08-14T22:23:45.417Z,98081.41
2022-08-14T22:26:22.115Z,98085.41
2022-08-14T22:28:55.629Z,98080.75
2022-08-14T22:31:25.030Z,98086.06
2022-08-14T22:34:05.292Z,98078.41
2022-08-14T22:36:55.851Z,98086.69
2022-08-14T22:40:17.838Z,98079.19
2022-08-14T22:42:21.117Z,98084.31
2022-08-14T22:44:56.389Z,98088.66
2022-08-14T22:47:26.507Z,98088.81
2022-08-14T22:50:30.274Z,98090.56
2022-08-14T22:53:05.221Z,98093.16
2022-08-14T22:55:36.487Z,98089.94
2022-08-14T22:58:06.158Z,98087.06
2022-08-14T23:00:35.874Z,98084.66
2022-08-14T23:03:17.342Z,98081.91
2022-08-14T23:05:54.590Z,98074.53
2022-08-14T23:08:59.843Z,98075.38
2022-08-14T23:11:13.919Z,98068.31
2022-08-14T23:13:46.345Z,98071.84
2022-08-14T23:16:19.852Z,98065.28
2022-08-14T23:18:53.900Z,98068.31
2022-08-14T23:21:25.162Z,98055.53
2022-08-14T23:24:00.072Z,98051.53
2022-08-14T23:26:48.246Z,98050.91
2022-08-14T23:29:21.326Z,98050.72
2022-08-14T23:31:51.252Z,98049.44
2022-08-14T23:34:23.671Z,98046.88
2022-08-14T23:36:58.441Z,98044.97
2022-08-14T23:39:35.376Z,98045.44
2022-08-14T23:42:11.577Z,98044.31
2022-08-14T23:44:45.924Z,98039.34
2022-08-14T23:47:26.335Z,98044.00
2022-08-14T23:50:03.897Z,98029.94
2022-08-14T23:52:55.996Z,98031.03
2022-08-14T23:55:33.566Z,98021.91
2022-08-14T23:58:02.617Z,98026.06
